Time;durP1;ratioP1;P1;durP2;ratioP2;P2;SDS_P1;SDS_P2;PMS_P1;PMS_P2;Temp;Humidity;BMP_temperature;BMP_pressure;BME280_temperature;BME280_humidity;BME280_pressure;Samples;Min_cycle;Max_cycle;Signal;HPM_P1;HPM_P2
2023/05/08 00:00:45;;;;;;;21.12;13.32;;;;;;;;;;4380042;32;319029;-90
2023/05/08 00:03:13;;;;;;;23.58;12.98;;;;;;;;;;4375910;32;318887;-90
2023/05/08 00:05:41;;;;;;;17.30;12.57;;;;;;;;;;4378415;32;318717;-90
2023/05/08 00:08:08;;;;;;;16.92;11.88;;;;;;;;;;4380973;32;319065;-91
2023/05/08 00:10:37;;;;;;;18.23;10.75;;;;;;;;;;4393054;32;318612;-90
2023/05/08 00:13:05;;;;;;;15.82;11.20;;;;;;;;;;4390064;32;318577;-90
2023/05/08 00:15:32;;;;;;;13.70;10.32;;;;;;;;;;4384702;32;318216;-90
2023/05/08 00:17:59;;;;;;;15.18;9.82;;;;;;;;;;4402146;32;318570;-93
2023/05/08 00:20:28;;;;;;;17.92;9.20;;;;;;;;;;4378671;32;317468;-92
2023/05/08 00:22:56;;;;;;;11.48;8.57;;;;;;;;;;4376541;32;317456;-91
2023/05/08 00:25:27;;;;;;;13.27;8.35;;;;;;;;;;4384194;32;317848;-91
2023/05/08 00:27:59;;;;;;;11.85;7.43;;;;;;;;;;4404002;32;317490;-91
2023/05/08 00:30:26;;;;;;;9.60;7.28;;;;;;;;;;4393932;32;317469;-91
2023/05/08 00:32:54;;;;;;;9.90;5.87;;;;;;;;;;4403215;32;316577;-91
2023/05/08 00:35:23;;;;;;;6.60;5.95;;;;;;;;;;4403108;32;316418;-91
2023/05/08 00:37:50;;;;;;;20.40;6.25;;;;;;;;;;4390195;32;411678;-90
2023/05/08 00:40:19;;;;;;;6.60;5.93;;;;;;;;;;4387979;32;317773;-91
2023/05/08 00:42:48;;;;;;;8.07;6.28;;;;;;;;;;4393780;32;316255;-92
2023/05/08 00:45:22;;;;;;;7.05;5.68;;;;;;;;;;4402952;32;316515;-90
2023/05/08 00:47:50;;;;;;;8.13;5.15;;;;;;;;;;4376792;32;388219;-91
2023/05/08 00:50:18;;;;;;;10.13;6.87;;;;;;;;;;4402160;32;316468;-92
2023/05/08 00:52:46;;;;;;;8.07;5.55;;;;;;;;;;4392674;32;349245;-91
2023/05/08 00:55:14;;;;;;;9.95;6.72;;;;;;;;;;4402230;32;316437;-90
2023/05/08 00:57:41;;;;;;;7.95;6.82;;;;;;;;;;4388942;32;316517;-90
2023/05/08 01:00:10;;;;;;;6.45;5.80;;;;;;;;;;4397212;32;315529;-91
2023/05/08 01:02:39;;;;;;;7.80;6.37;;;;;;;;;;4396341;32;316564;-91
2023/05/08 01:05:07;;;;;;;9.27;6.37;;;;;;;;;;4404846;32;316508;-91
2023/05/08 01:07:34;;;;;;;8.43;6.70;;;;;;;;;;4381766;32;316571;-90
2023/05/08 01:10:01;;;;;;;13.62;6.60;;;;;;;;;;4406259;32;316376;-92
2023/05/08 01:12:46;;;;;;;10.45;6.70;;;;;;;;;;4379570;32;317414;-91
2023/05/08 01:15:16;;;;;;;9.95;7.25;;;;;;;;;;4391074;32;317657;-90
2023/05/08 01:17:59;;;;;;;14.18;9.68;;;;;;;;;;4381967;32;316631;-90
2023/05/08 01:20:35;;;;;;;11.80;9.00;;;;;;;;;;4394367;32;318021;-91
2023/05/08 01:23:38;;;;;;;13.00;9.07;;;;;;;;;;4406008;32;317642;-91
2023/05/08 01:26:51;;;;;;;15.23;9.40;;;;;;;;;;4390682;32;418408;-91
2023/05/08 01:29:49;;;;;;;12.25;9.32;;;;;;;;;;4402538;32;417357;-91
2023/05/08 01:32:21;;;;;;;11.88;9.57;;;;;;;;;;4405092;32;317292;-91
2023/05/08 01:35:00;;;;;;;15.43;9.70;;;;;;;;;;4358171;32;390156;-91
2023/05/08 01:37:32;;;;;;;13.10;10.13;;;;;;;;;;4378401;32;317585;-91
2023/05/08 01:40:11;;;;;;;15.52;9.85;;;;;;;;;;4405134;32;318519;-90
2023/05/08 02:02:10;;;;;;;11.68;6.28;;;;;;;;;;4201015;32;20752;-81
2023/05/08 02:04:40;;;;;;;7.37;6.10;;;;;;;;;;4226960;33;316605;-79
2023/05/08 02:07:08;;;;;;;11.68;6.68;;;;;;;;;;4287692;33;316443;-84
2023/05/08 02:09:35;;;;;;;10.75;6.30;;;;;;;;;;4264031;33;317737;-82
2023/05/08 02:12:04;;;;;;;10.75;6.60;;;;;;;;;;4265093;33;317930;-81
2023/05/08 02:14:33;;;;;;;6.40;5.80;;;;;;;;;;4255065;33;318136;-81
2023/05/08 02:17:10;;;;;;;9.60;6.80;;;;;;;;;;4266383;33;317076;-80
2023/05/08 02:19:44;;;;;;;8.38;7.20;;;;;;;;;;4239438;33;316403;-78
2023/05/08 02:22:20;;;;;;;13.70;9.82;;;;;;;;;;4264130;33;317186;-80
2023/05/08 02:25:00;;;;;;;15.23;10.25;;;;;;;;;;4254371;33;387998;-82
2023/05/08 02:27:30;;;;;;;17.35;11.25;;;;;;;;;;4255401;33;319036;-80
2023/05/08 02:29:59;;;;;;;21.90;13.45;;;;;;;;;;4264884;33;318929;-81
2023/05/08 02:32:28;;;;;;;21.20;15.90;;;;;;;;;;4255053;33;368254;-81
2023/05/08 02:34:57;;;;;;;20.77;15.02;;;;;;;;;;4266227;33;318780;-80
2023/05/08 02:37:27;;;;;;;20.83;14.38;;;;;;;;;;4254320;33;319011;-80
2023/05/08 02:39:58;;;;;;;21.02;15.23;;;;;;;;;;4265836;33;356925;-80
2023/05/08 02:42:26;;;;;;;22.70;13.35;;;;;;;;;;4254951;33;318905;-80
2023/05/08 04:26:21;;;;;;;10.60;9.55;;;;;;;;;;4459332;32;20841;-84
2023/05/08 04:28:49;;;;;;;11.25;9.93;;;;;;;;;;4459855;32;20282;-78
2023/05/08 04:31:17;;;;;;;8.75;7.85;;;;;;;;;;4444029;32;20895;-82
2023/05/08 04:33:44;;;;;;;9.55;8.02;;;;;;;;;;4465755;32;20268;-81
2023/05/08 04:36:12;;;;;;;10.35;9.05;;;;;;;;;;4475174;32;20667;-80
2023/05/08 04:38:39;;;;;;;14.35;11.02;;;;;;;;;;4475088;32;20271;-83
2023/05/08 04:41:06;;;;;;;18.12;10.63;;;;;;;;;;4475732;32;20220;-85
2023/05/08 04:43:35;;;;;;;13.07;9.40;;;;;;;;;;4475074;32;20952;-78
2023/05/08 04:46:02;;;;;;;15.27;10.15;;;;;;;;;;4460113;32;20861;-79
2023/05/08 04:48:31;;;;;;;14.93;9.20;;;;;;;;;;4459117;32;20257;-87
2023/05/08 04:50:58;;;;;;;15.52;9.02;;;;;;;;;;4444390;32;20256;-83
2023/05/08 04:53:25;;;;;;;12.33;9.33;;;;;;;;;;4444308;32;20260;-80
2023/05/08 04:55:52;;;;;;;13.70;9.10;;;;;;;;;;4444005;32;20351;-81
2023/05/08 04:58:19;;;;;;;11.03;8.57;;;;;;;;;;4443928;32;20239;-81
2023/05/08 05:00:48;;;;;;;15.90;9.52;;;;;;;;;;4455374;32;20271;-78
2023/05/08 05:03:14;;;;;;;10.77;8.55;;;;;;;;;;4458890;32;20374;-82
2023/05/08 05:05:41;;;;;;;11.45;9.38;;;;;;;;;;4460281;32;20269;-82
2023/05/08 05:08:08;;;;;;;10.85;8.95;;;;;;;;;;4462192;32;20794;-84
2023/05/08 05:10:34;;;;;;;10.93;9.48;;;;;;;;;;4467922;32;20228;-77
2023/05/08 05:13:01;;;;;;;11.52;9.25;;;;;;;;;;4479361;32;20308;-85
2023/05/08 05:15:28;;;;;;;11.18;9.25;;;;;;;;;;4461044;32;20260;-82
2023/05/08 05:17:56;;;;;;;10.30;8.20;;;;;;;;;;4459151;32;20287;-81
2023/05/08 05:20:23;;;;;;;13.37;9.70;;;;;;;;;;4456891;32;20263;-79
2023/05/08 05:22:51;;;;;;;14.23;9.35;;;;;;;;;;4446155;32;20860;-82
2023/05/08 05:25:18;;;;;;;12.82;9.40;;;;;;;;;;4441617;32;20981;-82
2023/05/08 05:27:44;;;;;;;14.85;9.70;;;;;;;;;;4433694;32;20314;-82
2023/05/08 05:30:13;;;;;;;10.93;8.25;;;;;;;;;;4425749;32;20288;-78
2023/05/08 05:32:40;;;;;;;12.93;9.13;;;;;;;;;;4422450;32;20247;-85
2023/05/08 05:35:09;;;;;;;12.20;9.63;;;;;;;;;;4432616;32;20264;-82
2023/05/08 05:37:36;;;;;;;11.02;9.35;;;;;;;;;;4433159;32;20294;-82
2023/05/08 05:40:03;;;;;;;17.17;10.27;;;;;;;;;;4432749;32;20346;-84
2023/05/08 05:42:30;;;;;;;9.85;8.48;;;;;;;;;;4433427;32;20241;-79
2023/05/08 05:44:57;;;;;;;12.98;9.18;;;;;;;;;;4427976;32;20295;-83
2023/05/08 05:47:24;;;;;;;12.25;9.57;;;;;;;;;;4417516;32;20360;-82
2023/05/08 05:49:51;;;;;;;12.57;9.63;;;;;;;;;;4417196;32;20256;-80
2023/05/08 05:52:20;;;;;;;16.05;9.25;;;;;;;;;;4417336;32;20217;-80
2023/05/08 05:54:46;;;;;;;21.62;11.20;;;;;;;;;;4417364;32;20241;-84
2023/05/08 05:57:13;;;;;;;26.15;12.05;;;;;;;;;;4417924;32;20303;-79
2023/05/08 05:59:40;;;;;;;17.45;13.20;;;;;;;;;;4419387;32;20358;-84
2023/05/08 06:02:09;;;;;;;17.48;10.98;;;;;;;;;;4432585;32;20252;-83
2023/05/08 06:04:35;;;;;;;18.55;11.48;;;;;;;;;;4433051;32;20257;-80
2023/05/08 06:07:02;;;;;;;16.17;11.00;;;;;;;;;;4433058;32;20252;-78
2023/05/08 06:09:30;;;;;;;20.23;11.75;;;;;;;;;;4433040;32;20236;-82
2023/05/08 06:11:57;;;;;;;12.85;11.27;;;;;;;;;;4432240;32;20267;-81
2023/05/08 06:14:24;;;;;;;12.23;9.77;;;;;;;;;;4432616;32;21002;-82
2023/05/08 06:16:51;;;;;;;13.38;9.18;;;;;;;;;;4424255;32;20767;-87
2023/05/08 06:19:17;;;;;;;16.40;9.77;;;;;;;;;;4432761;32;20647;-82
2023/05/08 06:21:44;;;;;;;10.48;8.73;;;;;;;;;;4430379;32;20275;-80
2023/05/08 06:24:11;;;;;;;10.57;8.63;;;;;;;;;;4428418;32;20270;-81
2023/05/08 06:26:40;;;;;;;16.80;8.52;;;;;;;;;;4354088;32;337321;-80
2023/05/08 06:29:07;;;;;;;13.30;8.60;;;;;;;;;;4389708;32;318276;-83
2023/05/08 06:31:34;;;;;;;13.40;8.27;;;;;;;;;;4394690;32;318057;-77
2023/05/08 06:34:00;;;;;;;12.18;8.90;;;;;;;;;;4375665;32;419078;-78
2023/05/08 06:36:29;;;;;;;11.52;8.63;;;;;;;;;;4381079;32;318242;-78
2023/05/08 06:38:55;;;;;;;14.23;8.55;;;;;;;;;;4381167;32;317736;-79
2023/05/08 06:41:22;;;;;;;15.40;7.62;;;;;;;;;;4397418;32;317631;-79
2023/05/08 06:43:50;;;;;;;13.75;7.28;;;;;;;;;;4372387;32;318361;-79
2023/05/08 06:46:17;;;;;;;12.05;8.00;;;;;;;;;;4392065;32;318310;-79
2023/05/08 06:48:43;;;;;;;12.88;8.25;;;;;;;;;;4386170;32;318319;-80
2023/05/08 06:51:10;;;;;;;11.27;8.02;;;;;;;;;;4396961;32;323013;-77
2023/05/08 06:53:37;;;;;;;11.90;8.02;;;;;;;;;;4386385;32;318178;-79
2023/05/08 06:56:04;;;;;;;10.27;8.02;;;;;;;;;;4395459;32;318385;-80
2023/05/08 06:58:31;;;;;;;17.20;8.65;;;;;;;;;;4393464;32;318526;-78
2023/05/08 07:01:01;;;;;;;16.50;9.05;;;;;;;;;;4378199;32;318166;-78
2023/05/08 07:03:28;;;;;;;11.80;8.10;;;;;;;;;;4394455;32;358407;-77
2023/05/08 07:05:54;;;;;;;11.73;8.15;;;;;;;;;;4386081;32;318300;-80
2023/05/08 07:08:21;;;;;;;13.57;8.02;;;;;;;;;;4397387;32;318218;-79
2023/05/08 07:10:49;;;;;;;10.93;7.75;;;;;;;;;;4386830;32;318569;-78
2023/05/08 07:13:20;;;;;;;13.02;7.87;;;;;;;;;;4396732;32;318280;-78
2023/05/08 07:15:47;;;;;;;19.37;7.28;;;;;;;;;;4372891;32;318426;-78
2023/05/08 07:18:16;;;;;;;13.52;8.75;;;;;;;;;;4380758;32;318901;-80
2023/05/08 07:20:42;;;;;;;16.33;9.27;;;;;;;;;;4385764;32;318133;-81
2023/05/08 07:23:09;;;;;;;10.70;8.48;;;;;;;;;;4396279;32;318111;-83
2023/05/08 07:25:39;;;;;;;10.07;8.20;;;;;;;;;;4386290;32;318345;-79
2023/05/08 07:28:06;;;;;;;11.68;8.73;;;;;;;;;;4395260;32;318421;-82
2023/05/08 07:30:34;;;;;;;8.02;7.22;;;;;;;;;;4373663;32;318139;-81
2023/05/08 07:33:00;;;;;;;11.23;8.98;;;;;;;;;;4378587;32;418101;-81
2023/05/08 07:35:29;;;;;;;14.10;9.32;;;;;;;;;;4372771;32;318382;-81
2023/05/08 07:37:56;;;;;;;9.75;8.15;;;;;;;;;;4368744;32;318313;-81
2023/05/08 07:40:22;;;;;;;9.95;7.82;;;;;;;;;;4370965;32;332987;-82
2023/05/08 07:42:49;;;;;;;9.90;8.68;;;;;;;;;;4369742;32;317334;-82
2023/05/08 07:45:16;;;;;;;9.50;7.78;;;;;;;;;;4378240;32;317162;-81
2023/05/08 07:47:51;;;;;;;7.75;6.60;;;;;;;;;;4386730;32;316434;-81
2023/05/08 07:50:19;;;;;;;10.40;6.87;;;;;;;;;;4395313;32;316788;-81
2023/05/08 07:52:49;;;;;;;13.43;6.75;;;;;;;;;;4385543;32;318791;-85
2023/05/08 07:55:20;;;;;;;9.25;6.12;;;;;;;;;;4396633;32;318556;-84
2023/05/08 07:57:47;;;;;;;7.57;6.07;;;;;;;;;;4384543;32;316724;-84
2023/05/08 08:00:15;;;;;;;8.73;5.97;;;;;;;;;;4394845;32;317297;-87
2023/05/08 08:02:42;;;;;;;10.77;5.82;;;;;;;;;;4386768;32;317235;-85
2023/05/08 08:05:09;;;;;;;7.32;6.40;;;;;;;;;;4397040;32;317463;-85
2023/05/08 08:07:36;;;;;;;5.93;4.93;;;;;;;;;;4387412;32;317490;-85
2023/05/08 08:10:06;;;;;;;5.93;5.25;;;;;;;;;;4397036;32;317483;-87
2023/05/08 08:12:33;;;;;;;6.37;5.45;;;;;;;;;;4396004;32;316487;-84
2023/05/08 08:14:59;;;;;;;8.73;6.43;;;;;;;;;;4383130;32;325052;-83
2023/05/08 08:17:26;;;;;;;7.95;5.97;;;;;;;;;;4397267;32;317159;-84
2023/05/08 08:19:55;;;;;;;6.78;5.78;;;;;;;;;;4386736;32;317481;-85
2023/05/08 08:22:22;;;;;;;6.55;5.65;;;;;;;;;;4396221;32;317014;-90
2023/05/08 08:24:49;;;;;;;7.97;6.90;;;;;;;;;;4389030;32;316540;-85
2023/05/08 08:27:20;;;;;;;9.35;6.60;;;;;;;;;;4395266;32;317300;-85
2023/05/08 08:29:46;;;;;;;11.12;6.45;;;;;;;;;;4382077;32;325904;-85
2023/05/08 08:32:13;;;;;;;7.12;6.43;;;;;;;;;;4395283;32;318879;-88
2023/05/08 08:34:40;;;;;;;9.20;6.40;;;;;;;;;;4384464;32;317653;-84
2023/05/08 08:37:07;;;;;;;10.30;6.12;;;;;;;;;;4391383;32;318432;-82
2023/05/08 08:39:34;;;;;;;8.45;5.72;;;;;;;;;;4398271;32;318366;-81
2023/05/08 08:42:02;;;;;;;12.35;5.78;;;;;;;;;;4386911;32;417248;-81
2023/05/08 08:44:31;;;;;;;9.60;6.68;;;;;;;;;;4410940;32;318385;-81
2023/05/08 08:46:59;;;;;;;9.52;6.37;;;;;;;;;;4386544;32;338656;-81
2023/05/08 08:49:30;;;;;;;6.32;5.00;;;;;;;;;;4394582;32;316988;-82
2023/05/08 08:52:02;;;;;;;10.82;5.43;;;;;;;;;;4386178;32;317398;-80
2023/05/08 08:54:31;;;;;;;7.20;5.80;;;;;;;;;;4396197;32;350258;-79
2023/05/08 08:57:01;;;;;;;10.70;6.00;;;;;;;;;;4385026;32;348809;-82
2023/05/08 08:59:29;;;;;;;8.13;6.12;;;;;;;;;;4398276;32;318078;-78
2023/05/08 09:02:05;;;;;;;8.77;5.70;;;;;;;;;;4391165;32;317239;-85
2023/05/08 09:04:32;;;;;;;9.95;5.85;;;;;;;;;;4404053;32;316252;-84
2023/05/08 09:07:00;;;;;;;13.02;7.22;;;;;;;;;;4391703;32;317179;-87
2023/05/08 09:09:27;;;;;;;19.45;7.00;;;;;;;;;;4402394;32;318334;-86
2023/05/08 09:11:54;;;;;;;10.05;7.22;;;;;;;;;;4392791;32;317673;-91
2023/05/08 09:14:23;;;;;;;12.05;7.65;;;;;;;;;;4413209;32;318022;-92
2023/05/08 09:16:50;;;;;;;11.07;8.00;;;;;;;;;;4399160;32;317826;-93
2023/05/08 09:19:18;;;;;;;16.05;8.50;;;;;;;;;;4417219;32;317600;-87
2023/05/08 09:21:45;;;;;;;14.38;8.55;;;;;;;;;;4405684;32;317979;-83
2023/05/08 09:24:12;;;;;;;16.33;9.88;;;;;;;;;;4412427;32;316232;-80
2023/05/08 09:26:40;;;;;;;9.68;7.95;;;;;;;;;;4398496;32;317907;-80
2023/05/08 09:29:13;;;;;;;18.30;9.50;;;;;;;;;;4394876;32;317086;-82
2023/05/08 09:31:40;;;;;;;11.85;9.02;;;;;;;;;;4384996;32;318240;-79
2023/05/08 09:34:08;;;;;;;8.35;7.10;;;;;;;;;;4399189;32;318338;-82
2023/05/08 09:36:38;;;;;;;16.55;9.00;;;;;;;;;;4391382;32;317156;-83
2023/05/08 09:39:11;;;;;;;11.77;8.77;;;;;;;;;;4399320;32;317736;-81
2023/05/08 09:41:37;;;;;;;10.93;9.15;;;;;;;;;;4387542;32;385960;-81
2023/05/08 09:44:06;;;;;;;14.00;10.48;;;;;;;;;;4399672;32;318284;-81
2023/05/08 09:46:34;;;;;;;13.62;9.40;;;;;;;;;;4397938;32;319705;-80
2023/05/08 09:49:03;;;;;;;10.25;7.97;;;;;;;;;;4386517;32;417797;-81
2023/05/08 09:51:34;;;;;;;10.15;7.20;;;;;;;;;;4398993;32;318172;-82
2023/05/08 09:54:04;;;;;;;9.57;7.55;;;;;;;;;;4386400;32;417373;-83
2023/05/08 09:56:35;;;;;;;9.25;7.37;;;;;;;;;;4398954;32;317261;-79
2023/05/08 09:59:05;;;;;;;8.75;6.90;;;;;;;;;;4377821;32;416615;-80
2023/05/08 10:01:33;;;;;;;13.20;8.18;;;;;;;;;;4397930;32;316549;-79
2023/05/08 10:04:01;;;;;;;11.38;8.18;;;;;;;;;;4390003;32;318099;-81
2023/05/08 10:06:29;;;;;;;9.52;7.40;;;;;;;;;;4399793;32;318330;-80
2023/05/08 10:09:11;;;;;;;9.55;6.82;;;;;;;;;;4387628;32;337722;-82
2023/05/08 10:11:39;;;;;;;18.00;8.38;;;;;;;;;;4389419;32;317207;-81
2023/05/08 10:14:06;;;;;;;10.75;7.78;;;;;;;;;;4397648;32;318353;-81
2023/05/08 10:16:40;;;;;;;11.18;7.78;;;;;;;;;;4398639;32;318233;-80
2023/05/08 10:19:13;;;;;;;8.45;7.50;;;;;;;;;;4386134;32;417572;-80
2023/05/08 10:21:43;;;;;;;6.20;5.60;;;;;;;;;;4389402;32;317884;-80
2023/05/08 10:24:15;;;;;;;16.05;5.90;;;;;;;;;;4397587;32;317369;-79
2023/05/08 10:26:44;;;;;;;10.93;6.93;;;;;;;;;;4380340;32;346036;-79
2023/05/08 10:29:20;;;;;;;12.37;6.97;;;;;;;;;;4398035;32;318360;-80
2023/05/08 10:31:54;;;;;;;7.70;5.25;;;;;;;;;;4386406;32;318389;-80
2023/05/08 10:34:22;;;;;;;8.48;5.90;;;;;;;;;;4376946;32;317494;-81
2023/05/08 10:36:51;;;;;;;6.07;5.15;;;;;;;;;;4386631;32;317199;-80
2023/05/08 10:39:21;;;;;;;9.38;5.87;;;;;;;;;;4396371;32;317496;-80
2023/05/08 10:41:49;;;;;;;10.23;5.85;;;;;;;;;;4386868;32;317228;-81
2023/05/08 10:44:16;;;;;;;11.90;6.47;;;;;;;;;;4395332;32;317772;-80
2023/05/08 10:46:52;;;;;;;8.85;4.22;;;;;;;;;;4386305;32;321359;-80
2023/05/08 10:49:28;;;;;;;6.45;5.12;;;;;;;;;;4398830;32;317349;-80
2023/05/08 10:52:12;;;;;;;5.95;4.95;;;;;;;;;;4374644;32;317192;-80
2023/05/08 10:55:03;;;;;;;7.85;5.28;;;;;;;;;;4389016;32;317561;-80
2023/05/08 10:57:30;;;;;;;10.95;5.65;;;;;;;;;;4400049;32;344274;-79
2023/05/08 10:59:57;;;;;;;8.65;5.55;;;;;;;;;;4387801;32;328210;-77
2023/05/08 11:02:28;;;;;;;7.85;5.57;;;;;;;;;;4397274;32;316483;-87
2023/05/08 11:04:57;;;;;;;10.48;5.55;;;;;;;;;;4388254;32;317141;-77
2023/05/08 11:07:31;;;;;;;9.23;5.60;;;;;;;;;;4397220;32;317684;-77
2023/05/08 11:10:13;;;;;;;5.35;4.85;;;;;;;;;;4387360;32;316935;-76
2023/05/08 11:12:48;;;;;;;5.20;4.70;;;;;;;;;;4385161;32;317468;-79
2023/05/08 11:15:16;;;;;;;8.57;4.20;;;;;;;;;;4391994;32;317728;-77
2023/05/08 11:17:53;;;;;;;7.35;4.57;;;;;;;;;;4386011;32;317331;-80
2023/05/08 11:20:38;;;;;;;7.68;4.10;;;;;;;;;;4410507;32;317415;-82
2023/05/08 11:23:21;;;;;;;10.93;4.37;;;;;;;;;;4380754;32;417065;-80
2023/05/08 11:26:00;;;;;;;4.40;3.83;;;;;;;;;;4385074;32;318471;-79
2023/05/08 11:28:27;;;;;;;6.80;4.10;;;;;;;;;;4396676;32;317129;-80
2023/05/08 11:30:55;;;;;;;5.97;4.40;;;;;;;;;;4379118;32;317243;-78
2023/05/08 11:33:23;;;;;;;5.07;4.35;;;;;;;;;;4395792;32;317826;-81
2023/05/08 11:35:52;;;;;;;8.75;4.55;;;;;;;;;;4390936;32;317776;-85
2023/05/08 11:38:21;;;;;;;7.25;4.28;;;;;;;;;;4400194;32;317424;-86
2023/05/08 11:40:56;;;;;;;8.60;4.32;;;;;;;;;;4388542;32;316802;-80
2023/05/08 11:43:43;;;;;;;5.43;4.30;;;;;;;;;;4397229;32;316541;-85
2023/05/08 11:46:15;;;;;;;4.87;4.47;;;;;;;;;;4382675;32;417809;-80
2023/05/08 11:48:42;;;;;;;7.62;5.57;;;;;;;;;;4388829;32;317504;-82
2023/05/08 11:51:09;;;;;;;6.62;4.70;;;;;;;;;;4399296;32;317194;-82
2023/05/08 11:53:37;;;;;;;6.60;4.65;;;;;;;;;;4389110;32;317057;-90
2023/05/08 11:56:06;;;;;;;6.78;4.15;;;;;;;;;;4399187;32;317459;-82
2023/05/08 11:58:35;;;;;;;11.48;4.87;;;;;;;;;;4397808;32;317551;-82
2023/05/08 12:01:02;;;;;;;8.77;5.32;;;;;;;;;;4383275;32;417576;-82
2023/05/08 12:03:29;;;;;;;10.63;5.03;;;;;;;;;;4399687;32;317168;-83
2023/05/08 12:06:00;;;;;;;7.22;4.65;;;;;;;;;;4390888;32;318301;-87
2023/05/08 12:08:28;;;;;;;7.07;4.50;;;;;;;;;;4398846;32;342425;-88
2023/05/08 12:10:57;;;;;;;7.95;4.05;;;;;;;;;;4388962;32;317528;-92
2023/05/08 12:13:27;;;;;;;5.80;4.47;;;;;;;;;;4398571;32;317086;-90
2023/05/08 12:15:55;;;;;;;13.98;4.90;;;;;;;;;;4387911;32;317600;-87
2023/05/08 12:18:23;;;;;;;6.95;5.37;;;;;;;;;;4398267;32;318215;-87
2023/05/08 12:20:54;;;;;;;6.05;5.43;;;;;;;;;;4390768;32;317472;-87
2023/05/08 12:23:20;;;;;;;8.68;5.25;;;;;;;;;;4399743;32;316402;-82
2023/05/08 12:25:47;;;;;;;6.57;4.75;;;;;;;;;;4381514;32;316995;-84
2023/05/08 12:28:14;;;;;;;8.32;5.28;;;;;;;;;;4399240;32;317367;-89
2023/05/08 12:30:42;;;;;;;6.83;5.33;;;;;;;;;;4387836;32;339154;-88
2023/05/08 12:33:10;;;;;;;10.57;5.90;;;;;;;;;;4398300;32;317366;-86
2023/05/08 12:35:38;;;;;;;8.18;5.82;;;;;;;;;;4386675;32;318395;-83
2023/05/08 12:38:07;;;;;;;8.82;6.55;;;;;;;;;;4399111;32;317455;-92
2023/05/08 12:40:35;;;;;;;6.70;5.82;;;;;;;;;;4400361;32;317277;-78
2023/05/08 12:43:03;;;;;;;9.15;5.95;;;;;;;;;;4386573;32;418090;-79
2023/05/08 12:45:35;;;;;;;9.18;6.93;;;;;;;;;;4397130;32;317502;-79
2023/05/08 12:48:06;;;;;;;7.37;6.68;;;;;;;;;;4386372;32;416782;-83
2023/05/08 12:50:35;;;;;;;7.30;6.30;;;;;;;;;;4400087;32;316742;-80
2023/05/08 12:53:04;;;;;;;14.18;6.78;;;;;;;;;;4387107;32;416026;-79
2023/05/08 12:55:32;;;;;;;14.52;9.27;;;;;;;;;;4399895;32;318335;-80
2023/05/08 12:58:02;;;;;;;16.17;11.63;;;;;;;;;;4389199;32;318958;-83
2023/05/08 13:00:36;;;;;;;8.20;7.00;;;;;;;;;;4399619;32;318926;-81
2023/05/08 13:03:08;;;;;;;12.15;7.15;;;;;;;;;;4385158;32;418388;-82
2023/05/08 13:05:36;;;;;;;10.95;6.60;;;;;;;;;;4400932;32;318338;-83
2023/05/08 13:08:04;;;;;;;10.07;6.65;;;;;;;;;;4389765;32;418904;-80
2023/05/08 13:10:47;;;;;;;14.30;7.03;;;;;;;;;;4400862;32;317496;-79
2023/05/08 13:13:14;;;;;;;11.88;6.70;;;;;;;;;;4373508;32;417946;-79
2023/05/08 13:15:41;;;;;;;10.70;7.35;;;;;;;;;;4386127;32;318350;-78
2023/05/08 13:18:10;;;;;;;9.65;6.78;;;;;;;;;;4400903;32;318375;-79
2023/05/08 13:20:37;;;;;;;10.23;7.22;;;;;;;;;;4392040;32;317227;-80
2023/05/08 13:23:04;;;;;;;12.93;7.97;;;;;;;;;;4401854;32;353345;-81
2023/05/08 13:25:33;;;;;;;9.00;7.65;;;;;;;;;;4401475;32;357137;-81
2023/05/08 13:28:00;;;;;;;11.30;7.57;;;;;;;;;;4394413;32;317335;-82
2023/05/08 13:30:27;;;;;;;8.50;7.53;;;;;;;;;;4403930;32;318271;-80
2023/05/08 13:32:55;;;;;;;11.33;7.17;;;;;;;;;;4400230;32;316341;-82
2023/05/08 13:35:23;;;;;;;9.57;6.90;;;;;;;;;;4409624;32;316249;-85
2023/05/08 13:37:50;;;;;;;10.30;8.35;;;;;;;;;;4402730;32;316442;-80
2023/05/08 13:40:18;;;;;;;12.40;6.72;;;;;;;;;;4410943;32;316468;-78
2023/05/08 13:42:45;;;;;;;9.80;7.10;;;;;;;;;;4395650;32;318109;-80
2023/05/08 13:45:13;;;;;;;11.07;7.45;;;;;;;;;;4403592;32;317146;-78
2023/05/08 13:47:40;;;;;;;10.50;7.12;;;;;;;;;;4394631;32;318523;-82
2023/05/08 13:50:08;;;;;;;9.07;6.80;;;;;;;;;;4403642;32;318637;-81
2023/05/08 13:52:37;;;;;;;8.38;5.85;;;;;;;;;;4391485;32;317540;-82
2023/05/08 13:55:05;;;;;;;7.15;6.03;;;;;;;;;;4401202;32;316798;-82
2023/05/08 13:57:32;;;;;;;8.10;5.55;;;;;;;;;;4401256;32;316531;-81
2023/05/08 13:59:59;;;;;;;7.70;6.55;;;;;;;;;;4391359;32;317164;-79
2023/05/08 14:02:26;;;;;;;8.40;6.32;;;;;;;;;;4403898;32;317370;-80
2023/05/08 14:04:53;;;;;;;9.18;7.20;;;;;;;;;;4393679;32;317276;-82
2023/05/08 14:07:20;;;;;;;10.52;7.40;;;;;;;;;;4403017;32;317057;-85
2023/05/08 14:09:48;;;;;;;14.35;7.82;;;;;;;;;;4393247;32;318814;-84
2023/05/08 14:12:15;;;;;;;8.05;6.68;;;;;;;;;;4404036;32;334278;-86
2023/05/08 14:14:42;;;;;;;9.85;6.12;;;;;;;;;;4400168;32;359346;-79
2023/05/08 14:17:09;;;;;;;14.70;5.50;;;;;;;;;;4399916;32;316794;-80
2023/05/08 14:19:36;;;;;;;12.15;6.37;;;;;;;;;;4388664;32;317322;-84
2023/05/08 14:22:03;;;;;;;17.08;7.65;;;;;;;;;;4401301;32;316888;-82
2023/05/08 14:24:30;;;;;;;13.62;6.18;;;;;;;;;;4400491;32;346627;-81
2023/05/08 14:27:00;;;;;;;20.50;7.12;;;;;;;;;;4391070;32;318214;-81
2023/05/08 14:29:27;;;;;;;18.02;7.60;;;;;;;;;;4397849;32;317731;-78
2023/05/08 14:31:54;;;;;;;21.80;7.97;;;;;;;;;;4389267;32;317790;-79
2023/05/08 14:34:20;;;;;;;20.23;7.75;;;;;;;;;;4400580;32;317540;-80
2023/05/08 14:36:47;;;;;;;14.50;6.93;;;;;;;;;;4388829;32;317980;-81
2023/05/08 14:39:14;;;;;;;17.42;6.03;;;;;;;;;;4399030;32;318251;-79
2023/05/08 14:41:41;;;;;;;14.85;6.90;;;;;;;;;;4375590;32;334063;-81
2023/05/08 14:44:09;;;;;;;14.35;8.27;;;;;;;;;;4403420;32;317811;-83
2023/05/08 14:46:37;;;;;;;17.95;9.20;;;;;;;;;;4391367;32;318315;-84
2023/05/08 14:49:04;;;;;;;14.10;9.05;;;;;;;;;;4401747;32;318451;-88
2023/05/08 14:51:30;;;;;;;17.92;8.77;;;;;;;;;;4402971;32;318244;-92
2023/05/08 14:53:59;;;;;;;17.33;10.15;;;;;;;;;;4390431;32;318161;-89
2023/05/08 14:56:26;;;;;;;14.85;9.43;;;;;;;;;;4401342;32;318549;-86
2023/05/08 14:58:54;;;;;;;14.98;9.30;;;;;;;;;;4390382;32;327732;-91
2023/05/08 15:01:22;;;;;;;13.57;9.27;;;;;;;;;;4398500;32;318470;-89
2023/05/08 15:03:51;;;;;;;16.60;9.50;;;;;;;;;;4378799;32;321124;-81
2023/05/08 15:06:19;;;;;;;15.15;10.70;;;;;;;;;;4390919;32;318517;-87
2023/05/08 15:08:46;;;;;;;13.25;10.13;;;;;;;;;;4364472;32;319215;-89
2023/05/08 15:11:13;;;;;;;15.82;11.43;;;;;;;;;;4398349;32;319272;-86
2023/05/08 15:13:40;;;;;;;15.82;9.90;;;;;;;;;;4389029;32;319262;-85
2023/05/08 15:16:09;;;;;;;14.48;9.85;;;;;;;;;;4399189;32;359322;-85
2023/05/08 15:18:38;;;;;;;12.27;9.40;;;;;;;;;;4389429;32;317387;-84
2023/05/08 15:21:06;;;;;;;13.88;9.95;;;;;;;;;;4398725;32;317416;-82
2023/05/08 15:23:32;;;;;;;9.73;8.10;;;;;;;;;;4395756;32;318175;-87
2023/05/08 15:26:02;;;;;;;13.23;8.20;;;;;;;;;;4388033;32;317135;-85
2023/05/08 15:28:29;;;;;;;12.85;8.57;;;;;;;;;;4398043;32;317600;-81
2023/05/08 15:30:55;;;;;;;10.10;7.70;;;;;;;;;;4378252;32;318098;-79
2023/05/08 15:33:22;;;;;;;12.77;7.10;;;;;;;;;;4397426;32;317775;-79
2023/05/08 15:35:52;;;;;;;14.52;7.85;;;;;;;;;;4390928;32;317770;-78
2023/05/08 15:38:20;;;;;;;9.05;7.43;;;;;;;;;;4402801;32;317546;-89
2023/05/08 15:40:47;;;;;;;9.07;7.07;;;;;;;;;;4392074;32;316615;-93
2023/05/08 15:43:14;;;;;;;10.95;8.18;;;;;;;;;;4403789;32;316613;-91
2023/05/08 15:45:45;;;;;;;13.40;9.93;;;;;;;;;;4390515;32;317750;-88
2023/05/08 15:48:12;;;;;;;16.62;10.00;;;;;;;;;;4402627;32;317708;-91
2023/05/08 15:50:39;;;;;;;10.75;7.85;;;;;;;;;;4393180;32;319111;-80
2023/05/08 15:53:08;;;;;;;12.73;7.70;;;;;;;;;;4404215;32;317308;-93
2023/05/08 15:55:35;;;;;;;10.25;7.65;;;;;;;;;;4403445;32;317816;-95
2023/05/08 15:58:04;;;;;;;9.95;8.00;;;;;;;;;;4387841;32;419883;-87
2023/05/08 16:00:32;;;;;;;18.35;10.85;;;;;;;;;;4402593;32;316747;-76
2023/05/08 16:02:59;;;;;;;19.73;12.10;;;;;;;;;;4391337;32;318883;-76
2023/05/08 16:05:26;;;;;;;12.00;7.90;;;;;;;;;;4401351;32;318628;-79
2023/05/08 16:07:54;;;;;;;14.48;8.65;;;;;;;;;;4390666;32;317844;-76
2023/05/08 16:10:23;;;;;;;11.20;7.37;;;;;;;;;;4401112;32;344721;-77
2023/05/08 16:12:50;;;;;;;14.40;7.68;;;;;;;;;;4391725;32;317760;-78
2023/05/08 16:15:19;;;;;;;10.00;7.45;;;;;;;;;;4402412;32;317814;-86
2023/05/08 16:17:46;;;;;;;9.63;7.28;;;;;;;;;;4394605;32;317595;-88
2023/05/08 16:20:15;;;;;;;8.45;7.55;;;;;;;;;;4402377;32;316926;-87
2023/05/08 16:22:42;;;;;;;9.85;7.28;;;;;;;;;;4391807;32;316876;-84
2023/05/08 16:25:10;;;;;;;9.15;7.95;;;;;;;;;;4401889;32;316722;-88
2023/05/08 16:27:39;;;;;;;9.80;7.95;;;;;;;;;;4390656;32;395680;-88
2023/05/08 16:30:08;;;;;;;14.50;9.25;;;;;;;;;;4403714;32;316682;-88
2023/05/08 16:32:36;;;;;;;13.30;9.15;;;;;;;;;;4394668;32;357678;-89